Time;durP1;ratioP1;P1;durP2;ratioP2;P2;SDS_P1;SDS_P2;PMS_P1;PMS_P2;Temp;Humidity;BMP_temperature;BMP_pressure;BME280_temperature;BME280_humidity;BME280_pressure;Samples;Min_cycle;Max_cycle;Signal;HPM_P1;HPM_P2
2022/07/06 00:01:17;;;;;;;2.23;1.60;;;;;;;16.08;61.92;101086.59;5121202;28;20474;-66
2022/07/06 00:03:44;;;;;;;7.87;1.60;;;;;;;16.00;62.48;101095.44;5122374;28;20474;-65
2022/07/06 00:06:11;;;;;;;3.13;1.63;;;;;;;15.93;62.50;101092.50;5121429;28;20931;-66
2022/07/06 00:08:38;;;;;;;3.93;1.60;;;;;;;15.83;62.91;101089.03;5121725;28;20446;-65
2022/07/06 00:11:06;;;;;;;3.10;1.50;;;;;;;15.72;63.14;101087.41;5120905;28;20470;-65
2022/07/06 00:13:32;;;;;;;5.83;1.93;;;;;;;15.75;63.44;101091.69;5121302;28;20979;-66
2022/07/06 00:15:59;;;;;;;4.73;1.60;;;;;;;15.68;63.47;101093.28;5120431;28;20470;-67
2022/07/06 00:18:26;;;;;;;2.47;1.40;;;;;;;15.61;63.95;101103.81;5120273;28;20450;-67
2022/07/06 00:20:52;;;;;;;3.47;1.77;;;;;;;15.52;64.27;101092.09;5120253;28;20462;-68
2022/07/06 00:23:19;;;;;;;3.00;1.47;;;;;;;15.49;64.53;101099.66;5121425;28;20538;-67
2022/07/06 00:25:46;;;;;;;4.70;1.57;;;;;;;15.41;64.58;101086.91;5121446;28;21042;-67
2022/07/06 00:28:14;;;;;;;4.00;1.37;;;;;;;15.37;65.02;101101.69;5121536;28;20465;-66
2022/07/06 00:30:41;;;;;;;3.13;2.07;;;;;;;15.36;65.30;101100.84;5121281;28;20488;-66
2022/07/06 00:33:07;;;;;;;3.50;1.97;;;;;;;15.32;65.44;101099.44;5120997;28;20454;-66
2022/07/06 00:35:34;;;;;;;2.93;1.80;;;;;;;15.24;65.50;101108.28;5120841;28;20530;-65
2022/07/06 00:38:01;;;;;;;3.97;1.93;;;;;;;15.21;65.69;101102.34;5121059;28;20457;-65
2022/07/06 00:40:29;;;;;;;2.67;1.97;;;;;;;15.16;66.11;101099.25;5120675;28;20457;-67
2022/07/06 00:42:56;;;;;;;7.17;2.30;;;;;;;15.10;66.54;101102.53;5120009;28;21104;-68
2022/07/06 00:45:25;;;;;;;11.40;2.27;;;;;;;15.07;66.57;101101.84;5120404;28;20426;-67
2022/07/06 00:47:51;;;;;;;3.97;1.83;;;;;;;15.11;66.75;101101.56;5120681;28;20454;-66
2022/07/06 00:50:20;;;;;;;2.77;1.80;;;;;;;15.16;66.35;101104.66;5120032;28;20442;-66
2022/07/06 00:52:48;;;;;;;4.30;2.20;;;;;;;15.17;66.53;101096.44;5116980;28;20468;-66
2022/07/06 00:55:16;;;;;;;2.50;1.60;;;;;;;15.12;66.71;101103.22;5120130;28;20430;-66
2022/07/06 00:57:43;;;;;;;3.03;1.73;;;;;;;15.02;67.50;101098.75;5120832;28;20442;-67
2022/07/06 01:00:12;;;;;;;1.70;1.50;;;;;;;15.04;67.20;101106.69;5120065;28;20441;-67
2022/07/06 01:02:40;;;;;;;2.93;2.37;;;;;;;14.95;67.79;101110.28;5120931;28;20479;-67
2022/07/06 01:05:08;;;;;;;4.30;1.97;;;;;;;14.92;67.64;101107.88;5120488;28;20445;-67
2022/07/06 01:07:35;;;;;;;5.20;2.70;;;;;;;14.94;67.61;101109.41;5120372;28;20496;-66
2022/07/06 01:10:03;;;;;;;5.10;2.30;;;;;;;14.97;67.77;101109.13;5120880;28;20809;-67
2022/07/06 01:12:30;;;;;;;7.20;2.60;;;;;;;14.97;67.68;101110.97;5119986;28;20537;-66
2022/07/06 01:14:57;;;;;;;2.70;1.90;;;;;;;14.93;67.62;101105.03;5119822;28;20454;-66
2022/07/06 01:17:24;;;;;;;3.90;2.60;;;;;;;14.84;67.62;101103.22;5119830;28;20500;-64
2022/07/06 01:19:53;;;;;;;6.67;2.53;;;;;;;14.76;67.99;101106.66;5120698;28;20507;-64
2022/07/06 01:22:20;;;;;;;3.47;2.27;;;;;;;14.73;68.41;101104.25;5119806;28;20499;-64
2022/07/06 01:24:47;;;;;;;4.30;2.37;;;;;;;14.66;68.73;101101.28;5120292;28;20501;-64
2022/07/06 01:27:14;;;;;;;4.00;2.27;;;;;;;14.72;68.86;101104.38;5119334;28;20481;-64
2022/07/06 01:29:40;;;;;;;3.47;2.00;;;;;;;14.74;68.46;101105.09;5119924;28;20450;-64
2022/07/06 01:32:08;;;;;;;5.37;2.40;;;;;;;14.71;68.31;101102.72;5119259;28;20911;-64
2022/07/06 01:34:35;;;;;;;2.60;1.87;;;;;;;14.71;68.42;101094.63;5112163;28;20483;-64
2022/07/06 01:37:02;;;;;;;3.90;2.03;;;;;;;14.70;68.89;101096.47;5119623;28;20489;-64
2022/07/06 01:39:30;;;;;;;4.03;2.30;;;;;;;14.72;68.63;101090.94;5120248;28;20450;-64
2022/07/06 01:41:56;;;;;;;4.70;1.70;;;;;;;14.76;68.30;101101.28;5118877;28;20469;-64
2022/07/06 01:44:23;;;;;;;2.53;1.87;;;;;;;14.78;68.66;101096.59;5120001;28;20519;-64
2022/07/06 01:46:50;;;;;;;2.50;1.80;;;;;;;14.80;68.38;101104.50;5118863;28;20470;-64
2022/07/06 01:49:16;;;;;;;2.57;1.80;;;;;;;14.92;68.05;101102.50;5120332;28;20485;-64
2022/07/06 01:51:43;;;;;;;2.40;1.90;;;;;;;14.98;67.53;101094.69;5119213;28;20465;-64
2022/07/06 01:54:10;;;;;;;2.80;1.80;;;;;;;15.05;67.17;101092.22;5120535;28;20430;-64
2022/07/06 01:56:38;;;;;;;2.53;2.07;;;;;;;15.01;67.38;101094.34;5119394;28;20477;-64
2022/07/06 01:59:04;;;;;;;2.70;1.50;;;;;;;15.06;66.82;101088.53;5119710;28;20473;-64
2022/07/06 02:01:31;;;;;;;4.97;2.10;;;;;;;14.98;66.60;101091.09;5119958;28;20478;-66
2022/07/06 02:03:58;;;;;;;2.73;1.90;;;;;;;15.05;66.70;101090.38;5120339;28;20481;-65
2022/07/06 02:06:24;;;;;;;3.60;1.80;;;;;;;15.07;66.20;101098.31;5119960;28;20596;-65
2022/07/06 02:08:53;;;;;;;4.17;2.30;;;;;;;15.07;66.57;101090.25;5119796;28;20563;-65
2022/07/06 02:11:20;;;;;;;3.13;2.07;;;;;;;15.11;66.43;101090.78;5119376;28;20501;-65
2022/07/06 02:13:48;;;;;;;4.90;2.07;;;;;;;15.00;66.46;101099.91;5119053;28;21088;-64
2022/07/06 02:16:15;;;;;;;3.20;1.90;;;;;;;15.00;66.64;101097.22;5118904;28;20486;-65
2022/07/06 02:18:42;;;;;;;3.27;2.10;;;;;;;14.95;66.73;101096.81;5119984;28;20449;-64
2022/07/06 02:21:08;;;;;;;4.17;2.27;;;;;;;15.01;66.66;101102.44;5119170;28;20470;-65
2022/07/06 02:23:35;;;;;;;3.13;2.20;;;;;;;15.07;66.47;101096.47;5119960;28;21005;-64
2022/07/06 02:26:03;;;;;;;4.00;1.80;;;;;;;15.03;66.37;101095.06;5118805;28;20469;-65
2022/07/06 02:28:30;;;;;;;4.30;2.50;;;;;;;15.03;66.61;101104.97;5119620;28;20469;-65
2022/07/06 02:30:58;;;;;;;5.50;2.87;;;;;;;15.02;66.61;101098.75;5119416;28;20477;-65
2022/07/06 02:33:25;;;;;;;2.37;2.00;;;;;;;15.01;66.42;101105.13;5119829;28;20471;-65
2022/07/06 02:35:51;;;;;;;3.63;2.07;;;;;;;15.05;66.45;101100.28;5118950;28;20481;-65
2022/07/06 02:38:18;;;;;;;4.77;1.73;;;;;;;15.10;66.59;101099.84;5119766;28;20446;-65
2022/07/06 02:40:45;;;;;;;4.43;2.37;;;;;;;15.05;66.52;101100.28;5121492;28;20493;-65
2022/07/06 02:43:11;;;;;;;4.80;2.47;;;;;;;15.01;66.45;101104.28;5122348;28;20478;-66
2022/07/06 02:45:38;;;;;;;2.20;2.00;;;;;;;14.97;66.87;101109.13;5122113;28;21005;-65
2022/07/06 02:48:07;;;;;;;3.53;1.90;;;;;;;15.06;66.40;101099.31;5123911;28;20494;-65
2022/07/06 02:50:33;;;;;;;4.30;2.17;;;;;;;15.07;66.37;101092.94;5123049;28;20473;-65
2022/07/06 02:53:01;;;;;;;2.20;1.90;;;;;;;15.11;66.46;101098.88;5123150;28;21184;-65
2022/07/06 02:55:28;;;;;;;5.77;2.50;;;;;;;15.08;66.79;101094.59;5122487;28;20472;-65
2022/07/06 02:57:55;;;;;;;3.80;2.20;;;;;;;15.20;66.04;101093.41;5122947;28;20450;-65
2022/07/06 03:00:22;;;;;;;2.60;1.97;;;;;;;15.15;66.03;101094.88;5122966;28;20465;-64
2022/07/06 03:02:48;;;;;;;3.20;1.93;;;;;;;15.17;66.50;101096.44;5122978;28;20453;-65
2022/07/06 03:05:16;;;;;;;2.90;1.90;;;;;;;15.07;66.58;101101.84;5122441;28;20470;-65
2022/07/06 03:07:43;;;;;;;6.07;4.13;;;;;;;14.94;66.93;101095.94;5123325;28;20438;-65
2022/07/06 03:10:10;;;;;;;3.00;2.10;;;;;;;14.96;66.47;101099.34;5122270;28;20797;-65
2022/07/06 03:12:36;;;;;;;2.60;1.87;;;;;;;14.92;66.91;101106.03;5122236;28;20480;-65
2022/07/06 03:15:04;;;;;;;4.03;2.20;;;;;;;14.92;66.69;101108.72;5122825;28;20442;-65
2022/07/06 03:17:30;;;;;;;6.90;2.20;;;;;;;14.87;66.95;101114.53;5121356;28;20474;-66
2022/07/06 03:19:57;;;;;;;2.87;1.80;;;;;;;14.73;67.34;101106.09;5122899;28;20476;-65
2022/07/06 03:22:25;;;;;;;4.50;2.40;;;;;;;14.71;67.64;101108.09;5122779;28;20474;-65
2022/07/06 03:24:52;;;;;;;2.40;2.20;;;;;;;14.65;67.92;101115.75;5122771;28;20516;-65
2022/07/06 03:27:18;;;;;;;5.20;1.90;;;;;;;14.55;68.25;101122.97;5121902;28;20490;-65
2022/07/06 03:29:51;;;;;;;5.10;2.47;;;;;;;14.52;68.64;101117.88;5122724;28;20454;-65
2022/07/06 03:32:18;;;;;;;2.90;2.27;;;;;;;14.48;68.96;101121.88;5122234;28;20538;-65
2022/07/06 03:34:45;;;;;;;5.07;2.40;;;;;;;14.49;69.01;101119.03;5114471;28;20461;-65
2022/07/06 03:37:11;;;;;;;3.10;2.00;;;;;;;14.43;69.27;101124.97;5121548;28;20508;-65
2022/07/06 03:39:39;;;;;;;4.10;2.37;;;;;;;14.43;69.06;101121.44;5122147;28;20443;-65
2022/07/06 03:42:06;;;;;;;2.87;2.23;;;;;;;14.43;69.11;101124.97;5121662;28;20505;-65
2022/07/06 03:44:33;;;;;;;5.07;2.10;;;;;;;14.22;69.92;101118.94;5121330;28;21059;-65
2022/07/06 03:46:59;;;;;;;4.43;2.60;;;;;;;14.31;70.21;101116.22;5121202;28;20474;-65
2022/07/06 03:49:27;;;;;;;6.30;2.70;;;;;;;14.41;69.21;101118.91;5122132;28;20532;-66
2022/07/06 03:51:54;;;;;;;10.70;2.80;;;;;;;14.48;69.16;101120.00;5119982;28;20478;-66
2022/07/06 03:54:20;;;;;;;4.10;2.17;;;;;;;14.45;69.14;101122.97;5121683;28;20493;-66
2022/07/06 03:56:48;;;;;;;2.90;2.17;;;;;;;14.59;68.95;101128.94;5121638;28;21298;-66
2022/07/06 03:59:15;;;;;;;6.33;2.30;;;;;;;14.63;68.38;101135.72;5122035;28;20457;-65
2022/07/06 04:01:42;;;;;;;2.97;2.20;;;;;;;14.60;68.39;101130.63;5120829;28;20482;-65
2022/07/06 04:04:09;;;;;;;4.23;2.40;;;;;;;16.45;63.62;101128.69;5121970;28;20478;-65
2022/07/06 04:06:35;;;;;;;3.53;2.40;;;;;;;19.31;53.95;101132.06;5120942;28;21377;-65
2022/07/06 04:09:02;;;;;;;5.90;2.27;;;;;;;20.13;49.75;101128.88;5121052;28;21249;-65
2022/07/06 04:11:29;;;;;;;3.63;2.20;;;;;;;20.67;47.84;101131.44;5121234;28;20488;-65
2022/07/06 04:13:57;;;;;;;6.67;2.47;;;;;;;21.49;45.63;101126.09;5120468;28;20468;-68
2022/07/06 04:16:24;;;;;;;3.70;1.83;;;;;;;21.09;46.16;101129.13;5114371;28;20478;-66
2022/07/06 04:18:51;;;;;;;8.63;2.43;;;;;;;21.67;45.16;101140.13;5121392;28;20450;-66
2022/07/06 04:21:17;;;;;;;5.10;2.00;;;;;;;22.17;43.88;101127.44;5120441;28;20474;-66
2022/07/06 04:23:44;;;;;;;4.30;2.37;;;;;;;21.85;44.14;101127.97;5121890;28;20485;-67
2022/07/06 04:26:11;;;;;;;8.03;2.10;;;;;;;21.77;44.36;101135.22;5117764;28;21294;-67
2022/07/06 04:28:38;;;;;;;4.57;2.20;;;;;;;22.03;44.21;101120.22;5121121;28;20465;-67
2022/07/06 04:31:06;;;;;;;3.70;1.90;;;;;;;20.79;46.68;101131.00;5121137;28;20495;-66
2022/07/06 04:33:33;;;;;;;4.80;2.40;;;;;;;21.45;45.77;101125.59;5114170;28;20453;-66
2022/07/06 04:35:59;;;;;;;3.70;2.40;;;;;;;21.43;45.52;101124.97;5119795;28;20481;-67
2022/07/06 04:38:26;;;;;;;2.73;1.97;;;;;;;22.55;42.89;101113.53;5118652;28;20994;-68
2022/07/06 04:40:52;;;;;;;2.90;1.80;;;;;;;22.54;42.76;101122.75;5119511;28;20493;-67
2022/07/06 04:43:19;;;;;;;4.10;1.93;;;;;;;22.06;43.93;101116.22;5117166;28;20509;-66
2022/07/06 04:45:46;;;;;;;3.20;1.87;;;;;;;22.75;42.17;101123.72;5119156;28;20481;-68
2022/07/06 04:48:14;;;;;;;5.20;2.27;;;;;;;22.20;43.15;101123.47;5119215;28;21372;-67
2022/07/06 04:50:40;;;;;;;3.13;1.67;;;;;;;21.27;45.10;101114.31;5118169;28;20462;-67
2022/07/06 04:53:07;;;;;;;3.10;1.73;;;;;;;21.97;44.06;101110.06;5120177;28;20468;-67
2022/07/06 04:55:34;;;;;;;6.13;1.87;;;;;;;22.05;43.67;101117.25;5119419;28;20476;-67
2022/07/06 04:58:01;;;;;;;4.13;1.90;;;;;;;21.83;44.40;101117.28;5118608;28;20449;-67
2022/07/06 05:00:27;;;;;;;5.60;2.30;;;;;;;20.77;46.62;101116.75;5119833;28;20493;-68
2022/07/06 05:02:54;;;;;;;5.03;1.87;;;;;;;22.24;44.18;101123.94;5119792;28;20453;-67
2022/07/06 05:05:22;;;;;;;6.47;1.80;;;;;;;21.49;45.24;101123.38;5118762;28;20701;-67
2022/07/06 05:07:49;;;;;;;5.00;1.83;;;;;;;19.82;49.44;101137.91;5120289;28;20449;-68
2022/07/06 05:10:16;;;;;;;5.77;1.80;;;;;;;19.32;51.28;101118.34;5119541;28;20426;-66
2022/07/06 05:12:42;;;;;;;4.47;1.90;;;;;;;18.86;52.92;101117.31;5118242;28;20491;-67
2022/07/06 05:15:10;;;;;;;3.40;2.03;;;;;;;18.23;54.70;101114.34;5119048;28;20959;-66
2022/07/06 05:17:37;;;;;;;3.87;1.90;;;;;;;17.79;56.65;101122.72;5119983;28;20434;-70
2022/07/06 05:20:04;;;;;;;3.30;2.10;;;;;;;17.68;57.22;101122.03;5119131;28;20442;-62
2022/07/06 05:22:32;;;;;;;3.40;2.00;;;;;;;17.63;57.57;101129.78;5105533;28;20918;-66
2022/07/06 05:24:59;;;;;;;2.80;1.87;;;;;;;18.00;56.65;101127.69;5118573;28;20527;-66
2022/07/06 05:27:26;;;;;;;9.00;2.73;;;;;;;17.54;58.07;101119.97;5118403;28;20470;-66
2022/07/06 05:29:52;;;;;;;5.03;2.03;;;;;;;17.22;58.99;101124.28;5119648;28;20457;-67
2022/07/06 05:32:19;;;;;;;11.73;2.90;;;;;;;17.03;60.06;101127.19;5113470;28;20793;-66
2022/07/06 05:34:46;;;;;;;5.73;1.80;;;;;;;17.53;58.64;101125.53;5116946;28;20460;-66
2022/07/06 05:37:12;;;;;;;4.90;1.80;;;;;;;17.63;58.38;101121.69;5118946;28;20492;-66
2022/07/06 05:39:43;;;;;;;7.33;1.67;;;;;;;17.46;58.81;101131.63;5119817;28;20446;-67
2022/07/06 05:42:10;;;;;;;5.27;2.00;;;;;;;17.48;59.07;101135.00;5118557;28;20533;-66
2022/07/06 05:44:37;;;;;;;3.60;1.60;;;;;;;17.30;59.08;101132.38;5119075;28;20521;-66
2022/07/06 05:52:29;;;;;;;3.10;1.50;;;;;;;18.12;56.70;101130.91;5119109;28;20477;-66
2022/07/06 05:54:57;;;;;;;5.40;1.47;;;;;;;17.96;57.18;101132.59;5120382;28;20427;-67
2022/07/06 05:57:24;;;;;;;2.37;1.50;;;;;;;18.27;55.91;101139.22;5117955;28;20892;-66
2022/07/06 05:59:50;;;;;;;7.67;1.43;;;;;;;18.88;54.65;101145.09;5118646;28;20479;-66
2022/07/06 06:02:17;;;;;;;5.33;1.90;;;;;;;19.54;52.78;101138.38;5119313;28;20488;-66
2022/07/06 06:04:44;;;;;;;4.13;2.10;;;;;;;19.06;53.17;101144.84;5119031;28;20474;-66
2022/07/06 06:07:10;;;;;;;4.50;1.23;;;;;;;19.93;51.13;101148.34;5119364;28;20907;-67
2022/07/06 06:09:37;;;;;;;6.37;1.90;;;;;;;20.07;51.00;101140.47;5118540;28;20474;-67
2022/07/06 06:12:06;;;;;;;6.37;2.50;;;;;;;18.78;54.80;101153.34;5117990;28;20498;-66
2022/07/06 06:14:32;;;;;;;6.00;1.97;;;;;;;18.51;55.54;101155.44;5117005;28;20553;-66
2022/07/06 06:16:59;;;;;;;7.83;1.67;;;;;;;18.46;55.66;101162.38;5120940;28;20465;-66
2022/07/06 06:19:26;;;;;;;5.30;2.27;;;;;;;18.74;54.56;101160.16;5121030;28;20462;-66
2022/07/06 06:21:53;;;;;;;4.67;1.97;;;;;;;17.90;57.12;101160.31;5122465;28;20503;-66
2022/07/06 06:24:19;;;;;;;6.40;1.97;;;;;;;17.96;57.87;101156.94;5123666;28;20470;-66
2022/07/06 06:26:46;;;;;;;6.90;2.30;;;;;;;17.97;57.43;101163.22;5121600;28;20499;-66
2022/07/06 06:29:14;;;;;;;4.97;1.50;;;;;;;17.99;57.32;101162.03;5122109;28;20450;-66
2022/07/06 06:31:41;;;;;;;2.67;1.40;;;;;;;18.11;56.58;101159.84;5122281;28;20467;-66
2022/07/06 06:34:07;;;;;;;3.03;1.60;;;;;;;18.44;55.50;101159.84;5121311;28;20477;-66
2022/07/06 06:36:34;;;;;;;3.20;1.40;;;;;;;18.28;55.84;101173.38;5122081;28;20481;-66
2022/07/06 06:39:02;;;;;;;4.87;1.97;;;;;;;18.47;55.90;101172.19;5122651;28;20438;-66
2022/07/06 06:41:28;;;;;;;4.40;1.40;;;;;;;18.60;55.04;101178.78;5120946;28;21325;-66
2022/07/06 06:43:56;;;;;;;3.57;1.60;;;;;;;18.53;55.33;101183.19;5121944;28;20454;-67
2022/07/06 06:46:24;;;;;;;6.00;2.00;;;;;;;18.09;57.20;101179.94;5121593;28;21066;-66
2022/07/06 06:48:51;;;;;;;4.10;1.57;;;;;;;17.91;57.00;101185.50;5121991;28;20495;-66
2022/07/06 06:51:18;;;;;;;9.27;2.00;;;;;;;17.76;57.79;101185.25;5122212;28;20496;-66
2022/07/06 06:53:44;;;;;;;3.63;1.40;;;;;;;18.14;56.73;101189.28;5122781;28;20449;-66
2022/07/06 06:56:11;;;;;;;3.83;1.40;;;;;;;18.24;55.66;101186.41;5121872;28;20470;-67
2022/07/06 06:58:38;;;;;;;3.97;1.90;;;;;;;18.41;55.40;101177.25;5121866;28;20510;-66
2022/07/06 07:01:04;;;;;;;3.10;1.33;;;;;;;18.30;54.90;101184.88;5121942;28;20470;-66
2022/07/06 07:03:32;;;;;;;3.40;1.53;;;;;;;17.86;56.88;101194.97;5122456;28;20446;-67
2022/07/06 07:05:59;;;;;;;3.70;1.10;;;;;;;18.00;56.64;101192.63;5122161;28;20470;-66
2022/07/06 07:08:26;;;;;;;3.47;1.30;;;;;;;18.23;54.87;101198.25;5122308;28;20446;-67
2022/07/06 07:10:52;;;;;;;6.50;1.40;;;;;;;18.35;54.11;101183.38;5120653;28;20498;-66
2022/07/06 07:13:19;;;;;;;3.87;1.53;;;;;;;18.36;53.93;101190.47;5120896;28;20489;-66
2022/07/06 07:15:46;;;;;;;5.17;2.10;;;;;;;18.38;54.11;101196.56;5121214;28;20499;-66
2022/07/06 07:18:12;;;;;;;6.33;1.60;;;;;;;18.53;53.82;101191.31;5121749;28;20492;-67
2022/07/06 07:20:41;;;;;;;2.47;1.23;;;;;;;18.74;52.81;101187.25;5121770;28;20474;-67
2022/07/06 07:23:07;;;;;;;3.00;1.77;;;;;;;18.66;52.45;101192.66;5120553;28;20449;-66
2022/07/06 07:25:34;;;;;;;3.87;1.60;;;;;;;18.70;53.15;101197.56;5120503;28;20470;-66
2022/07/06 07:28:01;;;;;;;2.60;1.50;;;;;;;19.02;52.68;101195.00;5121353;28;20496;-66
2022/07/06 07:30:27;;;;;;;3.00;1.30;;;;;;;19.60;51.17;101201.06;5121461;28;20462;-66
2022/07/06 07:32:55;;;;;;;4.17;1.60;;;;;;;19.09;51.58;101207.69;5121357;28;20446;-69
2022/07/06 07:35:22;;;;;;;2.83;1.10;;;;;;;19.72;50.39;101202.38;5121288;28;20461;-67
2022/07/06 07:37:51;;;;;;;2.03;1.10;;;;;;;20.12;49.10;101208.63;5121418;28;20422;-66
2022/07/06 07:40:18;;;;;;;3.90;1.23;;;;;;;20.44;47.59;101195.84;5120682;28;20507;-66
2022/07/06 07:42:45;;;;;;;2.97;1.17;;;;;;;20.17;48.66;101200.78;5121726;28;20467;-67
2022/07/06 07:45:12;;;;;;;3.37;1.10;;;;;;;20.68;47.11;101197.53;5120603;28;20481;-67
2022/07/06 07:47:38;;;;;;;5.50;1.27;;;;;;;20.01;49.03;101207.16;5120626;28;20450;-67
2022/07/06 07:50:06;;;;;;;3.70;1.37;;;;;;;19.51;50.45;101200.25;5121276;28;20481;-66
2022/07/06 07:52:33;;;;;;;5.67;1.20;;;;;;;19.13;50.91;101200.91;5121562;28;20485;-66
2022/07/06 07:55:01;;;;;;;3.57;1.37;;;;;;;19.53;50.16;101201.78;5120791;28;20495;-66
2022/07/06 07:57:28;;;;;;;2.60;1.40;;;;;;;18.72;51.03;101205.53;5120611;28;20482;-66
2022/07/06 07:59:55;;;;;;;2.97;0.87;;;;;;;19.79;49.22;101206.13;5120358;28;20834;-66
2022/07/06 08:02:21;;;;;;;1.87;1.37;;;;;;;19.87;49.27;101199.78;5120813;28;20496;-67
2022/07/06 08:04:48;;;;;;;3.00;1.57;;;;;;;20.11;49.06;101205.06;5121159;28;21150;-66
2022/07/06 08:07:15;;;;;;;2.30;1.47;;;;;;;20.78;47.73;101199.97;5120828;28;20531;-67
2022/07/06 08:09:42;;;;;;;6.23;1.87;;;;;;;20.46;47.39;101205.47;5121309;28;20438;-66
2022/07/06 08:12:11;;;;;;;3.63;1.50;;;;;;;19.53;50.20;101200.97;5119659;28;20491;-66
2022/07/06 08:14:38;;;;;;;4.00;1.40;;;;;;;19.23;49.93;101199.88;5119992;28;20486;-66
2022/07/06 08:17:05;;;;;;;4.70;1.90;;;;;;;19.90;48.93;101199.44;5120379;28;20497;-66
2022/07/06 08:19:32;;;;;;;2.87;1.40;;;;;;;19.99;48.81;101202.94;5120279;28;20471;-66
2022/07/06 08:21:58;;;;;;;3.60;1.30;;;;;;;19.46;50.06;101202.66;5120189;28;20491;-67
2022/07/06 08:24:25;;;;;;;5.10;1.57;;;;;;;18.91;52.45;101199.78;5120982;28;20442;-66
2022/07/06 08:26:52;;;;;;;4.43;2.00;;;;;;;18.54;53.50;101203.84;5119556;28;20481;-67
2022/07/06 08:29:20;;;;;;;7.07;2.13;;;;;;;17.83;54.94;101210.66;5119366;28;20526;-67
2022/07/06 08:31:47;;;;;;;4.73;1.90;;;;;;;18.24;54.71;101205.34;5119994;28;20496;-66
2022/07/06 08:34:14;;;;;;;5.60;1.87;;;;;;;18.88;52.76;101196.56;5119857;28;20869;-66
2022/07/06 08:36:40;;;;;;;6.87;2.07;;;;;;;19.07;52.16;101204.31;5120131;28;20474;-66
2022/07/06 08:39:07;;;;;;;6.87;2.03;;;;;;;19.10;50.90;101201.25;5119688;28;20458;-67
2022/07/06 08:41:34;;;;;;;4.17;1.83;;;;;;;19.30;51.43;101209.81;5119521;28;20474;-66
2022/07/06 08:44:01;;;;;;;8.23;1.80;;;;;;;19.62;50.59;101204.47;5119532;28;20462;-66
2022/07/06 08:46:29;;;;;;;4.33;1.93;;;;;;;21.13;46.14;101194.88;5119908;28;21059;-66
2022/07/06 08:48:57;;;;;;;3.53;1.57;;;;;;;21.91;43.46;101196.09;5119939;28;20475;-67
2022/07/06 08:51:25;;;;;;;4.57;1.63;;;;;;;22.93;42.08;101194.97;5120069;28;20565;-66
2022/07/06 08:53:52;;;;;;;2.67;1.47;;;;;;;22.83;42.08;101194.47;5120819;28;20503;-67
2022/07/06 08:56:19;;;;;;;3.13;0.90;;;;;;;23.14;38.74;101190.53;5119546;28;20575;-66
2022/07/06 08:58:46;;;;;;;3.70;1.10;;;;;;;22.85;40.67;101195.13;5120192;28;20503;-66
2022/07/06 09:01:13;;;;;;;2.40;0.87;;;;;;;21.93;40.88;101198.66;5118358;28;20469;-66
2022/07/06 09:03:42;;;;;;;3.00;0.80;;;;;;;21.47;42.31;101191.56;5119530;28;20998;-66
2022/07/06 09:06:09;;;;;;;4.10;0.90;;;;;;;20.49;44.54;101196.97;5119401;28;20535;-67
2022/07/06 09:08:37;;;;;;;2.17;0.90;;;;;;;20.10;46.13;101195.25;5120313;28;20450;-67
2022/07/06 09:11:04;;;;;;;3.60;1.13;;;;;;;19.33;47.93;101200.50;5118636;28;20477;-65
2022/07/06 09:13:30;;;;;;;2.80;1.10;;;;;;;19.46;48.01;101197.22;5117890;28;20539;-65
2022/07/06 09:16:10;;;;;;;2.37;1.00;;;;;;;19.27;47.29;101204.78;5118979;28;21260;-67
2022/07/06 09:18:38;;;;;;;5.03;1.27;;;;;;;19.04;48.25;101203.81;5119776;28;20457;-66
2022/07/06 09:21:06;;;;;;;6.20;1.57;;;;;;;19.03;47.95;101205.69;5119881;28;20466;-66
2022/07/06 09:23:33;;;;;;;3.67;0.93;;;;;;;18.81;48.28;101205.34;5120215;28;20446;-66
2022/07/06 09:26:02;;;;;;;3.33;1.10;;;;;;;18.92;49.12;101203.31;5118664;28;20503;-66
2022/07/06 09:28:41;;;;;;;4.40;1.30;;;;;;;19.03;49.46;101208.41;5119384;28;20728;-66
2022/07/06 09:31:08;;;;;;;4.30;1.23;;;;;;;18.42;50.15;101202.50;5119247;28;20519;-67
2022/07/06 09:33:36;;;;;;;3.43;1.20;;;;;;;18.75;49.93;101203.31;5119485;28;20488;-68
2022/07/06 09:36:03;;;;;;;2.27;0.80;;;;;;;18.29;50.61;101200.28;5119257;28;20486;-68
2022/07/06 09:38:31;;;;;;;2.20;1.30;;;;;;;18.65;50.60;101199.94;5119243;28;20869;-67
2022/07/06 09:40:58;;;;;;;4.40;1.07;;;;;;;18.55;50.17;101196.56;5118221;28;20474;-67
2022/07/06 09:43:25;;;;;;;11.30;1.83;;;;;;;18.49;50.57;101202.66;5119055;28;20558;-67
2022/07/06 09:45:53;;;;;;;4.63;0.90;;;;;;;18.47;49.76;101202.84;5118791;28;20485;-67
2022/07/06 09:48:22;;;;;;;2.50;0.83;;;;;;;18.51;49.63;101198.78;5119230;28;20937;-67
2022/07/06 09:50:51;;;;;;;3.47;1.10;;;;;;;18.69;49.56;101189.63;5122798;28;20537;-68
2022/07/06 09:53:19;;;;;;;3.53;1.23;;;;;;;18.63;49.32;101186.56;5123583;28;20510;-68
2022/07/06 09:55:48;;;;;;;10.63;1.50;;;;;;;18.52;49.72;101199.59;5122089;28;20481;-67
2022/07/06 09:58:15;;;;;;;1.73;0.90;;;;;;;18.90;48.34;101203.50;5123313;28;20441;-67
2022/07/06 10:00:42;;;;;;;1.60;0.60;;;;;;;18.68;49.86;101210.44;5122967;28;20470;-68
2022/07/06 10:03:09;;;;;;;4.10;1.23;;;;;;;19.08;48.75;101213.28;5122883;28;20467;-67
2022/07/06 10:05:38;;;;;;;2.50;1.17;;;;;;;18.99;48.34;101207.03;5122863;28;20474;-67
2022/07/06 10:08:08;;;;;;;3.47;1.03;;;;;;;18.42;50.24;101216.88;5123952;28;20466;-67
2022/07/06 10:10:36;;;;;;;5.70;1.20;;;;;;;18.31;50.38;101202.81;5122316;28;20499;-68
2022/07/06 10:13:06;;;;;;;7.50;1.40;;;;;;;18.38;50.76;101207.41;5123017;28;20979;-66
2022/07/06 10:15:34;;;;;;;4.77;0.93;;;;;;;18.31;50.63;101213.66;5122145;28;20935;-67
2022/07/06 10:18:02;;;;;;;6.90;1.20;;;;;;;19.03;48.82;101211.09;5122046;28;20446;-67
2022/07/06 10:20:31;;;;;;;2.90;1.00;;;;;;;19.44;47.71;101210.97;5123106;28;20547;-66
2022/07/06 10:23:00;;;;;;;1.93;0.97;;;;;;;20.13;45.48;101204.88;5123478;28;20450;-68
2022/07/06 10:25:27;;;;;;;2.00;0.83;;;;;;;21.12;44.71;101195.88;5122593;28;20479;-67
2022/07/06 10:27:55;;;;;;;4.30;1.30;;;;;;;21.17;42.33;101193.44;5122900;28;20446;-68
2022/07/06 10:30:24;;;;;;;7.90;0.90;;;;;;;20.93;43.05;101200.84;5122112;28;20454;-67
2022/07/06 10:32:52;;;;;;;4.13;1.10;;;;;;;20.87;43.92;101193.44;5122825;28;20462;-67
2022/07/06 10:35:20;;;;;;;4.30;1.10;;;;;;;21.03;44.00;101190.53;5122595;28;20446;-67
2022/07/06 10:37:47;;;;;;;3.23;0.93;;;;;;;21.45;42.83;101199.06;5123775;28;20427;-68
2022/07/06 10:43:00;;;;;;;3.30;1.10;;;;;;;21.43;40.64;101191.09;5122795;28;20433;-68
2022/07/06 10:45:53;;;;;;;2.63;1.20;;;;;;;21.37;41.62;101191.84;5121424;28;20466;-68
2022/07/06 10:48:21;;;;;;;2.03;1.10;;;;;;;21.48;41.17;101197.88;5123268;28;20465;-67
2022/07/06 10:50:50;;;;;;;4.13;1.30;;;;;;;21.48;41.14;101195.16;5121564;28;20470;-67
2022/07/06 10:53:17;;;;;;;7.03;1.10;;;;;;;23.06;38.89;101190.66;5121661;28;20478;-67
2022/07/06 10:55:47;;;;;;;4.60;1.27;;;;;;;24.52;35.65;101178.56;5102268;28;20470;-67
2022/07/06 10:58:15;;;;;;;3.03;1.07;;;;;;;23.53;37.53;101190.91;5102745;28;20487;-67
2022/07/06 11:00:54;;;;;;;2.73;0.90;;;;;;;23.08;37.92;101185.84;5099868;28;20979;-68
2022/07/06 11:03:48;;;;;;;2.20;0.90;;;;;;;23.04;38.27;101187.28;5114170;28;20465;-68
2022/07/06 11:06:17;;;;;;;3.90;1.10;;;;;;;23.06;37.65;101186.03;5073733;28;20970;-67
2022/07/06 11:08:51;;;;;;;3.87;1.30;;;;;;;22.53;37.91;101180.16;5122268;28;20462;-68
2022/07/06 11:11:20;;;;;;;2.40;1.13;;;;;;;24.02;37.19;101182.47;5121316;28;20477;-67
2022/07/06 11:14:01;;;;;;;6.67;1.23;;;;;;;22.90;37.76;101184.44;5121346;28;20974;-67
2022/07/06 11:16:33;;;;;;;5.33;0.90;;;;;;;23.12;36.77;101177.06;5121027;28;20491;-67
2022/07/06 11:19:02;;;;;;;2.63;0.90;;;;;;;23.13;36.83;101177.91;5122049;28;20479;-67
2022/07/06 11:21:47;;;;;;;2.63;1.43;;;;;;;21.97;38.72;101175.44;5121720;28;20511;-67
2022/07/06 11:24:15;;;;;;;2.90;0.90;;;;;;;22.02;39.31;101181.13;5121618;28;20454;-67
2022/07/06 11:26:44;;;;;;;3.27;1.00;;;;;;;20.73;41.95;101183.38;5121932;28;20478;-68
2022/07/06 11:29:12;;;;;;;3.47;1.10;;;;;;;19.98;43.88;101183.09;5121494;28;20450;-67
2022/07/06 11:31:41;;;;;;;2.87;0.83;;;;;;;20.21;44.55;101174.97;5120043;28;21062;-67
2022/07/06 11:34:09;;;;;;;2.70;1.33;;;;;;;20.82;42.10;101176.84;5122344;28;20465;-67